^^
Station Historical Data
Daily Summary for March 1, 2017 Units:  English    Metric   Both
« Previous Day
Next Day »
Daily Weekly Monthly Yearly Custom
  High: Low: Average:
Temperature: 65.8 °F 49.7 °F 58.3 °F
Dew Point: 60.4 °F 48.3 °F 54.3 °F
Humidity: 97% 64% 88%
Wind Speed: 10.0mph 0.0mph 3.2mph
Wind Gust: 22.0mph - -
Wind- - SSW
Pressure: 30.00 in 29.40 in -
Precipitation: 0.35 in    
Historical Graphs
 
 
Tabular Data for March 1, 2017
Time Temperature Dew Point Pressure Wind Wind Speed Wind Gust Humidity Rainfall Rate (Hourly) Conditions
00:00 49.7 °F 48.3 °F 30.00 in Calm   3.0 mph 95% 0.00 in CLR
00:15 49.7 °F 48.3 °F 29.99 in Calm   3.0 mph 95% 0.00 in CLR
00:30 49.8 °F 48.4 °F 29.99 in Calm   3.0 mph 95% 0.00 in CLR
00:45 49.9 °F 48.5 °F 29.97 in Calm   1.0 mph 95% 0.00 in CLR
01:00 50.0 °F 48.6 °F 29.98 in Calm   5.0 mph 95% 0.00 in CLR
02:15 51.3 °F 49.9 °F 29.93 in SSW 1.0 mph 9.0 mph 95% 0.00 in OVC
02:30 51.6 °F 50.2 °F 29.91 in SSE 1.0 mph 6.0 mph 95% 0.00 in OVC
02:45 51.5 °F 50.1 °F 29.90 in Calm   4.0 mph 95% 0.00 in OVC
03:00 51.8 °F 50.4 °F 29.90 in SSW 1.0 mph 6.0 mph 95% 0.00 in OVC
03:15 52.2 °F 50.8 °F 29.90 in South 2.0 mph 5.0 mph 95% 0.00 in CLR
03:30 52.2 °F 51.1 °F 29.89 in SSW 1.0 mph 7.0 mph 96% 0.03 in RA
03:45 52.3 °F 51.2 °F 29.89 in South 1.0 mph 8.0 mph 96% 0.01 in
04:00 52.5 °F 51.4 °F 29.88 in SSE 1.0 mph 5.0 mph 96% 0.01 in
04:15 52.6 °F 51.5 °F 29.87 in Calm   6.0 mph 96% 0.01 in -RA
04:30 52.8 °F 51.7 °F 29.87 in SSW 2.0 mph 5.0 mph 96% 0.00 in -RA
04:45 52.8 °F 51.7 °F 29.87 in Calm   4.0 mph 96% 0.00 in -RA
05:00 52.6 °F 51.5 °F 29.86 in Calm   3.0 mph 96% 0.01 in -RA
05:15 52.5 °F 51.4 °F 29.86 in South 1.0 mph 4.0 mph 96% 0.00 in -RA
05:30 53.0 °F 52.2 °F 29.85 in SSW 2.0 mph 5.0 mph 97% 0.00 in -RA
05:45 53.0 °F 52.2 °F 29.84 in SSE 1.0 mph 4.0 mph 97% 0.00 in -RA
06:00 52.8 °F 52.0 °F 29.84 in South 1.0 mph 8.0 mph 97% 0.00 in -RA
06:15 52.6 °F 51.8 °F 29.81 in South 2.0 mph 6.0 mph 97% 0.00 in -DZ
06:30 52.6 °F 51.8 °F 29.80 in SW 2.0 mph 6.0 mph 97% 0.00 in -DZ
06:45 53.1 °F 52.3 °F 29.81 in SSE 1.0 mph 6.0 mph 97% 0.00 in -DZ
07:00 53.6 °F 52.8 °F 29.80 in Calm   7.0 mph 97% 0.00 in -DZ
07:15 53.4 °F 52.6 °F 29.79 in South 2.0 mph 6.0 mph 97% 0.00 in CLR
07:30 53.8 °F 53.0 °F 29.77 in South 2.0 mph 7.0 mph 97% 0.00 in CLR
07:45 54.1 °F 53.3 °F 29.78 in South 5.0 mph 7.0 mph 97% 0.00 in CLR
08:00 54.4 °F 53.6 °F 29.77 in SSW 2.0 mph 10.0 mph 97% 0.00 in CLR
08:15 54.6 °F 53.8 °F 29.77 in South 3.0 mph 8.0 mph 97% 0.00 in CLR
08:30 55.0 °F 54.2 °F 29.76 in South 5.0 mph 9.0 mph 97% 0.00 in CLR
08:45 55.4 °F 54.6 °F 29.75 in SSW 5.0 mph 10.0 mph 97% 0.00 in CLR
09:00 55.8 °F 55.0 °F 29.73 in SSE 2.0 mph 12.0 mph 97% 0.00 in CLR
09:15 56.0 °F 55.2 °F 29.72 in SSW 3.0 mph 9.0 mph 97% 0.00 in CLR
09:30 56.3 °F 55.2 °F 29.73 in South 5.0 mph 9.0 mph 96% 0.00 in CLR
09:45 56.4 °F 55.3 °F 29.74 in SSW 3.0 mph 8.0 mph 96% 0.00 in CLR
10:00 56.5 °F 55.4 °F 29.72 in SSW 2.0 mph 9.0 mph 96% 0.03 in RA
10:15 56.6 °F 55.4 °F 29.71 in Calm   5.0 mph 96% 0.00 in
10:30 56.6 °F 55.5 °F 29.74 in SSW 3.0 mph 10.0 mph 96% 0.03 in RA
10:45 56.6 °F 55.5 °F 29.71 in SSW 2.0 mph 8.0 mph 96% 0.07 in RA
11:00 56.8 °F 55.7 °F 29.71 in South 2.0 mph 7.0 mph 96% 0.02 in RA
11:15 56.7 °F 55.6 °F 29.70 in SSW 6.0 mph 11.0 mph 96% 0.04 in -RA
11:30 56.8 °F 55.7 °F 29.66 in South 5.0 mph 12.0 mph 96% 0.03 in -RA
11:45 57.0 °F 55.9 °F 29.66 in SSW 7.0 mph 13.0 mph 96% 0.01 in -RA
12:00 57.3 °F 56.2 °F 29.64 in South 6.0 mph 16.0 mph 96% 0.03 in -RA
12:15 57.7 °F 56.5 °F 29.60 in South 6.0 mph 13.0 mph 96% 0.02 in -RA
12:30 58.1 °F 57.0 °F 29.60 in SSW 5.0 mph 17.0 mph 96% 0.00 in -RA
12:45 58.5 °F 57.4 °F 29.60 in SSW 6.0 mph 16.0 mph 96% 0.00 in -RA
13:00 60.0 °F 58.6 °F 29.58 in SSW 10.0 mph 21.0 mph 95% 0.00 in -RA
13:15 61.1 °F 59.1 °F 29.56 in SSW 7.0 mph 22.0 mph 93% 0.00 in CLR
13:30 61.7 °F 59.0 °F 29.56 in SSW 8.0 mph 20.0 mph 91% 0.00 in CLR
13:45 61.4 °F 58.7 °F 29.56 in SW 9.0 mph 20.0 mph 91% 0.00 in CLR
14:00 61.7 °F 59.4 °F 29.56 in South 6.0 mph 21.0 mph 92% 0.00 in CLR
14:15 62.4 °F 59.7 °F 29.55 in SSW 7.0 mph 17.0 mph 91% 0.00 in OVC
14:30 62.7 °F 60.1 °F 29.53 in SSW 2.0 mph 15.0 mph 91% 0.00 in OVC
14:45 62.9 °F 60.2 °F 29.53 in SSW 3.0 mph 14.0 mph 91% 0.00 in OVC
15:00 63.0 °F 60.3 °F 29.53 in SSW 1.0 mph 10.0 mph 91% 0.00 in OVC
15:15 63.1 °F 60.4 °F 29.52 in SSW 3.0 mph 7.0 mph 91% 0.00 in BKN
15:30 63.0 °F 60.0 °F 29.52 in SW 3.0 mph 7.0 mph 90% 0.00 in BKN
15:45 62.5 °F 59.8 °F 29.52 in South 1.0 mph 7.0 mph 91% 0.00 in BKN
16:00 62.1 °F 59.4 °F 29.48 in Calm   5.0 mph 91% 0.00 in BKN
16:15 61.4 °F 59.1 °F 29.44 in SSW 1.0 mph 4.0 mph 92% 0.00 in -RA
16:30 61.2 °F 58.9 °F 29.43 in South 1.0 mph 6.0 mph 92% 0.00 in -RA
16:45 62.4 °F 59.1 °F 29.43 in South 3.0 mph 8.0 mph 89% 0.00 in -RA
17:00 62.0 °F 58.4 °F 29.45 in SSW 2.0 mph 8.0 mph 88% 0.00 in -RA
17:15 61.8 °F 58.2 °F 29.45 in South 2.0 mph 7.0 mph 88% 0.00 in SCT
17:30 62.4 °F 58.8 °F 29.45 in South 2.0 mph 6.0 mph 88% 0.00 in SCT
17:45 62.7 °F 59.1 °F 29.45 in SSW 1.0 mph 5.0 mph 88% 0.00 in SCT
18:00 63.3 °F 59.7 °F 29.46 in SW 2.0 mph 7.0 mph 88% 0.00 in SCT
18:15 64.7 °F 59.1 °F 29.46 in SW 3.0 mph 15.0 mph 82% 0.00 in SCT
18:30 64.9 °F 57.9 °F 29.45 in SW 3.0 mph 14.0 mph 78% 0.00 in SCT
18:45 65.6 °F 55.9 °F 29.46 in SW 5.0 mph 18.0 mph 71% 0.00 in SCT
19:00 65.8 °F 54.1 °F 29.47 in SW 10.0 mph 20.0 mph 66% 0.00 in SCT
19:15 65.4 °F 53.3 °F 29.46 in SW 8.0 mph 15.0 mph 65% 0.00 in CLR
19:30 65.2 °F 52.7 °F 29.46 in SW 3.0 mph 15.0 mph 64% 0.00 in CLR
19:45 64.5 °F 52.5 °F 29.46 in WSW 2.0 mph 13.0 mph 65% 0.00 in CLR
20:00 64.2 °F 52.2 °F 29.46 in SW 5.0 mph 10.0 mph 65% 0.00 in CLR
20:15 64.1 °F 51.7 °F 29.46 in SW 3.0 mph 12.0 mph 64% 0.00 in CLR
20:30 63.9 °F 51.5 °F 29.45 in SW 3.0 mph 13.0 mph 64% 0.00 in CLR
20:45 63.4 °F 51.4 °F 29.45 in SSW 3.0 mph 9.0 mph 65% 0.00 in CLR
21:00 63.3 °F 51.4 °F 29.44 in SW 1.0 mph 7.0 mph 65% 0.00 in CLR
21:15 63.4 °F 51.0 °F 29.44 in SSW 1.0 mph 10.0 mph 64% 0.00 in CLR
21:30 63.4 °F 51.0 °F 29.44 in SSW 5.0 mph 10.0 mph 64% 0.00 in CLR
21:45 63.4 °F 51.0 °F 29.43 in SSW 6.0 mph 12.0 mph 64% 0.00 in CLR
22:00 63.4 °F 51.4 °F 29.42 in SSW 8.0 mph 14.0 mph 65% 0.00 in CLR
22:15 62.9 °F 51.4 °F 29.42 in SW 6.0 mph 13.0 mph 66% 0.00 in CLR
22:30 62.7 °F 51.6 °F 29.42 in SSW 6.0 mph 12.0 mph 67% 0.00 in CLR
22:45 62.7 °F 51.6 °F 29.42 in SSW 3.0 mph 15.0 mph 67% 0.00 in CLR
23:00 62.4 °F 51.3 °F 29.42 in SSW 7.0 mph 18.0 mph 67% 0.00 in CLR
23:15 62.4 °F 51.7 °F 29.42 in SW 9.0 mph 15.0 mph 68% 0.00 in CLR
23:30 62.3 °F 51.6 °F 29.41 in SSW 7.0 mph 16.0 mph 68% 0.00 in CLR
23:45 62.2 °F 51.5 °F 29.40 in SW 8.0 mph 17.0 mph 68% 0.00 in CLR
TarryTown NY Weather
Compliments of Weather Underground - 1.5 mb